createdAt,value
2018-08-16T18:32:57.280Z,3.53
2018-08-16T18:38:41.237Z,5.90
2018-08-16T18:41:09.993Z,5.70
2018-08-16T18:43:38.276Z,5.53
2018-08-16T18:46:06.812Z,5.63
2018-08-16T18:48:35.205Z,6.13
2018-08-16T18:51:03.440Z,6.10
2018-08-16T18:53:31.726Z,6.00
2018-08-16T18:56:00.029Z,6.10
2018-08-16T18:58:28.308Z,7.00
2018-08-16T19:00:56.545Z,6.78
2018-08-16T19:03:24.860Z,7.47
2018-08-16T19:05:53.085Z,8.10
2018-08-16T19:08:21.416Z,8.60
2018-08-16T19:10:49.651Z,9.45
2018-08-16T19:13:17.956Z,10.00
2018-08-16T19:15:46.332Z,10.68
2018-08-16T19:18:14.568Z,10.70
2018-08-16T19:20:43.029Z,10.63
2018-08-16T19:23:11.329Z,11.05
2018-08-16T19:25:39.647Z,10.80
2018-08-16T19:28:07.895Z,10.35
2018-08-16T19:30:36.156Z,11.00
2018-08-16T19:33:04.429Z,10.80
2018-08-16T19:35:32.684Z,10.50
2018-08-16T19:38:00.949Z,10.10
2018-08-16T19:40:29.208Z,10.90
2018-08-16T19:42:57.436Z,11.00
2018-08-16T19:45:25.733Z,11.80
2018-08-16T19:47:53.973Z,12.35
2018-08-16T19:50:22.280Z,12.47
2018-08-16T19:52:50.526Z,13.03
2018-08-16T19:55:18.809Z,12.80
2018-08-16T19:57:47.288Z,12.58
2018-08-16T20:00:15.569Z,12.68
2018-08-16T20:02:43.808Z,12.40
2018-08-16T20:05:12.041Z,12.53
2018-08-16T20:07:40.264Z,12.63
2018-08-16T20:10:09.496Z,11.68
2018-08-16T20:12:38.032Z,12.03
2018-08-16T20:15:07.315Z,11.10
2018-08-16T20:17:36.302Z,11.90
2018-08-16T20:20:06.096Z,11.50
2018-08-16T20:22:34.664Z,10.87
2018-08-16T20:25:03.661Z,10.82
2018-08-16T20:27:31.908Z,10.37
2018-08-16T20:30:00.316Z,11.15
2018-08-16T20:32:28.584Z,10.53
2018-08-16T20:34:57.012Z,10.70
2018-08-16T20:37:25.248Z,10.20
2018-08-16T20:39:53.692Z,10.20
2018-08-16T20:42:21.924Z,10.30
2018-08-16T20:44:50.201Z,10.20
2018-08-16T20:47:18.424Z,11.23
2018-08-16T20:49:46.776Z,9.83
2018-08-16T20:52:15.096Z,10.30
2018-08-16T20:54:43.367Z,9.30
2018-08-16T20:57:11.671Z,10.60
2018-08-16T20:59:39.937Z,9.50
2018-08-16T21:02:08.238Z,10.47
2018-08-16T21:04:36.668Z,10.17
2018-08-16T21:07:05.202Z,10.50
2018-08-16T21:09:33.556Z,9.70
2018-08-16T21:12:01.884Z,10.20
2018-08-16T21:14:30.149Z,10.40
2018-08-16T21:16:58.408Z,9.88
2018-08-16T21:19:26.921Z,10.63
2018-08-16T21:21:55.184Z,9.75
2018-08-16T21:24:23.431Z,9.27
2018-08-16T21:26:51.801Z,10.47
2018-08-16T21:29:20.037Z,10.20
2018-08-16T21:31:48.304Z,9.23
2018-08-16T21:34:16.612Z,10.63
2018-08-16T21:36:44.866Z,9.70
2018-08-16T21:39:13.470Z,10.05
2018-08-16T21:41:41.732Z,10.18
2018-08-16T21:44:10.829Z,9.60
2018-08-16T21:46:39.088Z,9.40
2018-08-16T21:51:44.948Z,10.60
2018-08-16T21:54:13.188Z,10.90
2018-08-16T21:56:41.456Z,10.93
2018-08-16T21:59:09.716Z,11.70
2018-08-16T22:01:37.975Z,12.23
2018-08-16T22:04:06.204Z,13.08
2018-08-16T22:06:45.664Z,12.20
2018-08-16T22:09:13.932Z,12.60
2018-08-16T22:11:42.180Z,11.90
2018-08-16T22:14:10.449Z,12.00
2018-08-16T22:16:38.696Z,13.57
2018-08-16T22:19:06.928Z,14.15
2018-08-16T22:21:35.278Z,12.45
2018-08-16T22:24:03.528Z,13.00
2018-08-16T22:26:31.776Z,13.00
2018-08-16T22:29:00.010Z,12.25
2018-08-16T22:31:28.292Z,11.95
2018-08-16T22:33:56.585Z,11.27
2018-08-16T22:36:24.807Z,12.03
2018-08-16T22:38:53.057Z,11.55
2018-08-16T22:41:21.327Z,11.00
2018-08-16T22:43:49.589Z,10.50
2018-08-16T22:46:17.831Z,10.30
2018-08-16T22:48:46.076Z,10.48
2018-08-16T22:51:14.352Z,10.58
2018-08-16T22:53:42.588Z,10.20
2018-08-16T22:56:10.852Z,10.23
2018-08-16T22:58:39.115Z,11.17
2018-08-16T23:01:07.513Z,10.45
2018-08-16T23:03:35.780Z,11.63
2018-08-16T23:06:04.024Z,10.82
2018-08-16T23:08:32.276Z,11.30
2018-08-16T23:11:00.524Z,12.60
2018-08-16T23:13:28.812Z,11.20
2018-08-16T23:15:57.052Z,12.00
2018-08-16T23:18:25.366Z,11.93
2018-08-16T23:20:53.646Z,12.20
2018-08-16T23:23:21.897Z,12.10
2018-08-16T23:25:50.132Z,11.50
2018-08-16T23:28:18.439Z,12.05
2018-08-16T23:30:46.688Z,11.97
2018-08-16T23:33:14.932Z,11.90
2018-08-16T23:35:43.172Z,11.73
2018-08-16T23:38:11.428Z,12.33
2018-08-16T23:40:39.712Z,12.13
2018-08-16T23:43:08.324Z,12.03
2018-08-16T23:45:36.560Z,11.43
2018-08-16T23:48:16.316Z,12.20
2018-08-16T23:50:44.580Z,12.60
2018-08-16T23:53:12.851Z,12.70
2018-08-16T23:55:41.089Z,11.78
2018-08-16T23:58:09.356Z,11.88
